sensor_id;sensor_type;location;lat;lon;timestamp;P1;durP1;ratioP1;P2;durP2;ratioP2
4821;SDS011;2425;47.794;13.068;2023-04-25T00:00:27;2.17;;;2.07;;
4821;SDS011;2425;47.794;13.068;2023-04-25T00:02:54;2.10;;;2.00;;
4821;SDS011;2425;47.794;13.068;2023-04-25T00:05:22;2.80;;;2.60;;
4821;SDS011;2425;47.794;13.068;2023-04-25T00:07:49;3.27;;;2.60;;
4821;SDS011;2425;47.794;13.068;2023-04-25T00:10:16;2.10;;;2.00;;
4821;SDS011;2425;47.794;13.068;2023-04-25T00:12:44;2.17;;;2.10;;
4821;SDS011;2425;47.794;13.068;2023-04-25T00:15:11;3.13;;;1.90;;
4821;SDS011;2425;47.794;13.068;2023-04-25T00:17:38;2.50;;;2.30;;
4821;SDS011;2425;47.794;13.068;2023-04-25T00:20:05;2.23;;;2.13;;
4821;SDS011;2425;47.794;13.068;2023-04-25T00:22:34;2.40;;;2.30;;
4821;SDS011;2425;47.794;13.068;2023-04-25T00:25:02;2.23;;;2.13;;
4821;SDS011;2425;47.794;13.068;2023-04-25T00:27:32;4.90;;;1.93;;
4821;SDS011;2425;47.794;13.068;2023-04-25T00:30:09;1.90;;;1.90;;
4821;SDS011;2425;47.794;13.068;2023-04-25T00:32:37;1.97;;;1.90;;
4821;SDS011;2425;47.794;13.068;2023-04-25T00:35:04;3.30;;;2.13;;
4821;SDS011;2425;47.794;13.068;2023-04-25T00:37:31;2.00;;;1.90;;
4821;SDS011;2425;47.794;13.068;2023-04-25T00:39:58;2.00;;;1.90;;
4821;SDS011;2425;47.794;13.068;2023-04-25T00:42:25;1.90;;;1.83;;
4821;SDS011;2425;47.794;13.068;2023-04-25T00:44:52;6.23;;;2.53;;
4821;SDS011;2425;47.794;13.068;2023-04-25T00:47:20;2.53;;;2.43;;
4821;SDS011;2425;47.794;13.068;2023-04-25T00:49:47;3.03;;;2.20;;
4821;SDS011;2425;47.794;13.068;2023-04-25T00:52:14;2.23;;;2.00;;
4821;SDS011;2425;47.794;13.068;2023-04-25T00:54:41;4.00;;;1.97;;
4821;SDS011;2425;47.794;13.068;2023-04-25T00:57:08;2.10;;;2.10;;
4821;SDS011;2425;47.794;13.068;2023-04-25T00:59:35;1.83;;;1.83;;
4821;SDS011;2425;47.794;13.068;2023-04-25T01:02:03;2.10;;;1.80;;
4821;SDS011;2425;47.794;13.068;2023-04-25T01:04:31;1.93;;;1.83;;
4821;SDS011;2425;47.794;13.068;2023-04-25T01:06:58;2.27;;;2.17;;
4821;SDS011;2425;47.794;13.068;2023-04-25T01:09:25;1.97;;;1.87;;
4821;SDS011;2425;47.794;13.068;2023-04-25T01:11:52;1.93;;;1.77;;
4821;SDS011;2425;47.794;13.068;2023-04-25T01:14:18;1.80;;;1.77;;
4821;SDS011;2425;47.794;13.068;2023-04-25T01:16:45;1.70;;;1.70;;
4821;SDS011;2425;47.794;13.068;2023-04-25T01:19:12;1.90;;;1.80;;
4821;SDS011;2425;47.794;13.068;2023-04-25T01:21:44;3.90;;;1.77;;
4821;SDS011;2425;47.794;13.068;2023-04-25T01:24:11;1.73;;;1.63;;
4821;SDS011;2425;47.794;13.068;2023-04-25T01:26:38;2.10;;;2.00;;
4821;SDS011;2425;47.794;13.068;2023-04-25T01:29:09;1.80;;;1.80;;
4821;SDS011;2425;47.794;13.068;2023-04-25T01:31:36;1.53;;;1.53;;
4821;SDS011;2425;47.794;13.068;2023-04-25T01:34:03;1.70;;;1.70;;
4821;SDS011;2425;47.794;13.068;2023-04-25T01:36:29;1.90;;;1.90;;
4821;SDS011;2425;47.794;13.068;2023-04-25T01:38:58;1.80;;;1.70;;
4821;SDS011;2425;47.794;13.068;2023-04-25T01:41:24;1.70;;;1.60;;
4821;SDS011;2425;47.794;13.068;2023-04-25T01:43:51;1.60;;;1.60;;
4821;SDS011;2425;47.794;13.068;2023-04-25T01:46:18;1.70;;;1.70;;
4821;SDS011;2425;47.794;13.068;2023-04-25T01:48:45;1.73;;;1.63;;
4821;SDS011;2425;47.794;13.068;2023-04-25T01:51:11;2.00;;;1.90;;
4821;SDS011;2425;47.794;13.068;2023-04-25T01:53:38;4.10;;;1.70;;
4821;SDS011;2425;47.794;13.068;2023-04-25T01:56:07;1.60;;;1.60;;
4821;SDS011;2425;47.794;13.068;2023-04-25T01:58:33;1.53;;;1.50;;
4821;SDS011;2425;47.794;13.068;2023-04-25T02:01:00;1.80;;;1.70;;
4821;SDS011;2425;47.794;13.068;2023-04-25T02:03:27;1.67;;;1.67;;
4821;SDS011;2425;47.794;13.068;2023-04-25T02:05:53;1.60;;;1.60;;
4821;SDS011;2425;47.794;13.068;2023-04-25T02:08:20;1.40;;;1.40;;
4821;SDS011;2425;47.794;13.068;2023-04-25T02:10:47;1.40;;;1.40;;
4821;SDS011;2425;47.794;13.068;2023-04-25T02:13:15;1.73;;;1.73;;
4821;SDS011;2425;47.794;13.068;2023-04-25T02:15:41;1.90;;;1.90;;
4821;SDS011;2425;47.794;13.068;2023-04-25T02:18:08;1.40;;;1.40;;
4821;SDS011;2425;47.794;13.068;2023-04-25T02:20:36;1.80;;;1.73;;
4821;SDS011;2425;47.794;13.068;2023-04-25T02:23:03;1.60;;;1.60;;
4821;SDS011;2425;47.794;13.068;2023-04-25T02:25:30;1.37;;;1.37;;
4821;SDS011;2425;47.794;13.068;2023-04-25T02:27:57;1.43;;;1.43;;
4821;SDS011;2425;47.794;13.068;2023-04-25T02:30:25;1.70;;;1.70;;
4821;SDS011;2425;47.794;13.068;2023-04-25T02:32:51;1.30;;;1.30;;
4821;SDS011;2425;47.794;13.068;2023-04-25T02:35:18;1.50;;;1.50;;
4821;SDS011;2425;47.794;13.068;2023-04-25T02:37:45;1.70;;;1.60;;
4821;SDS011;2425;47.794;13.068;2023-04-25T02:40:12;1.87;;;1.77;;
4821;SDS011;2425;47.794;13.068;2023-04-25T02:42:38;2.70;;;2.00;;
4821;SDS011;2425;47.794;13.068;2023-04-25T02:45:05;1.70;;;1.70;;
4821;SDS011;2425;47.794;13.068;2023-04-25T02:47:34;2.10;;;1.57;;
4821;SDS011;2425;47.794;13.068;2023-04-25T02:50:01;1.20;;;1.20;;
4821;SDS011;2425;47.794;13.068;2023-04-25T02:52:27;1.43;;;1.43;;
4821;SDS011;2425;47.794;13.068;2023-04-25T02:54:54;1.60;;;1.60;;
4821;SDS011;2425;47.794;13.068;2023-04-25T02:57:21;1.33;;;1.33;;
4821;SDS011;2425;47.794;13.068;2023-04-25T02:59:48;1.53;;;1.53;;
4821;SDS011;2425;47.794;13.068;2023-04-25T03:02:14;1.40;;;1.40;;
4821;SDS011;2425;47.794;13.068;2023-04-25T03:04:42;2.13;;;2.03;;
4821;SDS011;2425;47.794;13.068;2023-04-25T03:07:09;1.80;;;1.70;;
4821;SDS011;2425;47.794;13.068;2023-04-25T03:09:36;1.40;;;1.40;;
4821;SDS011;2425;47.794;13.068;2023-04-25T03:12:03;1.30;;;1.30;;
4821;SDS011;2425;47.794;13.068;2023-04-25T03:14:30;1.53;;;1.53;;
4821;SDS011;2425;47.794;13.068;2023-04-25T03:16:57;1.70;;;1.60;;
4821;SDS011;2425;47.794;13.068;2023-04-25T03:19:23;1.40;;;1.40;;
4821;SDS011;2425;47.794;13.068;2023-04-25T03:21:51;1.13;;;1.03;;
4821;SDS011;2425;47.794;13.068;2023-04-25T03:24:18;1.30;;;1.30;;
4821;SDS011;2425;47.794;13.068;2023-04-25T03:26:45;2.60;;;1.37;;
4821;SDS011;2425;47.794;13.068;2023-04-25T03:29:12;1.30;;;1.30;;
4821;SDS011;2425;47.794;13.068;2023-04-25T03:31:38;1.40;;;1.40;;
4821;SDS011;2425;47.794;13.068;2023-04-25T03:34:05;1.40;;;1.30;;
4821;SDS011;2425;47.794;13.068;2023-04-25T03:36:32;1.20;;;1.20;;
4821;SDS011;2425;47.794;13.068;2023-04-25T03:39:00;1.30;;;1.30;;
4821;SDS011;2425;47.794;13.068;2023-04-25T03:41:27;1.77;;;1.73;;
4821;SDS011;2425;47.794;13.068;2023-04-25T03:43:54;1.20;;;1.20;;
4821;SDS011;2425;47.794;13.068;2023-04-25T03:46:21;1.40;;;1.40;;
4821;SDS011;2425;47.794;13.068;2023-04-25T03:48:48;1.27;;;1.27;;
4821;SDS011;2425;47.794;13.068;2023-04-25T03:51:14;1.30;;;1.20;;
4821;SDS011;2425;47.794;13.068;2023-04-25T03:53:41;1.47;;;1.37;;
4821;SDS011;2425;47.794;13.068;2023-04-25T03:56:09;1.10;;;1.10;;
4821;SDS011;2425;47.794;13.068;2023-04-25T03:58:36;1.10;;;1.10;;
4821;SDS011;2425;47.794;13.068;2023-04-25T04:01:03;1.40;;;1.40;;
4821;SDS011;2425;47.794;13.068;2023-04-25T04:03:32;1.20;;;1.20;;
4821;SDS011;2425;47.794;13.068;2023-04-25T04:05:59;1.10;;;1.07;;
4821;SDS011;2425;47.794;13.068;2023-04-25T04:08:25;1.53;;;1.43;;
4821;SDS011;2425;47.794;13.068;2023-04-25T04:10:52;1.57;;;1.47;;
4821;SDS011;2425;47.794;13.068;2023-04-25T04:13:20;1.47;;;1.37;;
4821;SDS011;2425;47.794;13.068;2023-04-25T04:15:47;2.20;;;1.20;;
4821;SDS011;2425;47.794;13.068;2023-04-25T04:18:14;1.63;;;1.33;;
4821;SDS011;2425;47.794;13.068;2023-04-25T04:20:40;1.47;;;1.47;;
4821;SDS011;2425;47.794;13.068;2023-04-25T04:23:07;1.50;;;1.50;;
4821;SDS011;2425;47.794;13.068;2023-04-25T04:25:34;1.40;;;1.40;;
4821;SDS011;2425;47.794;13.068;2023-04-25T04:28:00;1.00;;;1.00;;
4821;SDS011;2425;47.794;13.068;2023-04-25T04:30:29;5.40;;;1.20;;
4821;SDS011;2425;47.794;13.068;2023-04-25T04:32:56;10.83;;;1.50;;
4821;SDS011;2425;47.794;13.068;2023-04-25T04:35:23;18.10;;;2.57;;
4821;SDS011;2425;47.794;13.068;2023-04-25T04:37:49;4.40;;;2.47;;
4821;SDS011;2425;47.794;13.068;2023-04-25T04:40:17;13.03;;;6.27;;
4821;SDS011;2425;47.794;13.068;2023-04-25T04:42:44;12.33;;;4.33;;
4821;SDS011;2425;47.794;13.068;2023-04-25T04:45:11;11.87;;;4.20;;
4821;SDS011;2425;47.794;13.068;2023-04-25T04:47:39;10.80;;;3.43;;
4821;SDS011;2425;47.794;13.068;2023-04-25T04:50:07;12.43;;;3.50;;
4821;SDS011;2425;47.794;13.068;2023-04-25T04:52:34;8.63;;;4.10;;
4821;SDS011;2425;47.794;13.068;2023-04-25T04:55:01;9.33;;;5.97;;
4821;SDS011;2425;47.794;13.068;2023-04-25T04:57:28;11.53;;;4.30;;
4821;SDS011;2425;47.794;13.068;2023-04-25T04:59:56;8.00;;;4.03;;
4821;SDS011;2425;47.794;13.068;2023-04-25T05:02:22;40.23;;;9.37;;
4821;SDS011;2425;47.794;13.068;2023-04-25T05:04:51;26.60;;;5.73;;
4821;SDS011;2425;47.794;13.068;2023-04-25T05:07:17;32.67;;;8.07;;
4821;SDS011;2425;47.794;13.068;2023-04-25T05:09:44;129.73;;;24.90;;
4821;SDS011;2425;47.794;13.068;2023-04-25T05:12:11;151.50;;;25.63;;
4821;SDS011;2425;47.794;13.068;2023-04-25T05:14:37;140.87;;;28.13;;
4821;SDS011;2425;47.794;13.068;2023-04-25T05:17:04;155.60;;;37.47;;
4821;SDS011;2425;47.794;13.068;2023-04-25T05:19:33;143.13;;;34.53;;
4821;SDS011;2425;47.794;13.068;2023-04-25T05:22:01;136.63;;;29.70;;
4821;SDS011;2425;47.794;13.068;2023-04-25T05:24:28;152.47;;;33.10;;
4821;SDS011;2425;47.794;13.068;2023-04-25T05:26:55;153.13;;;30.50;;
4821;SDS011;2425;47.794;13.068;2023-04-25T05:29:22;154.50;;;32.27;;
4821;SDS011;2425;47.794;13.068;2023-04-25T05:31:49;137.63;;;32.87;;
4821;SDS011;2425;47.794;13.068;2023-04-25T05:34:15;135.20;;;32.60;;
4821;SDS011;2425;47.794;13.068;2023-04-25T05:36:42;140.77;;;32.40;;
4821;SDS011;2425;47.794;13.068;2023-04-25T05:39:10;130.30;;;31.93;;
4821;SDS011;2425;47.794;13.068;2023-04-25T05:41:37;133.17;;;31.60;;
4821;SDS011;2425;47.794;13.068;2023-04-25T05:44:04;131.07;;;31.50;;
4821;SDS011;2425;47.794;13.068;2023-04-25T05:46:31;132.33;;;30.67;;
4821;SDS011;2425;47.794;13.068;2023-04-25T05:48:58;144.67;;;29.43;;
4821;SDS011;2425;47.794;13.068;2023-04-25T05:51:25;99.93;;;28.87;;
4821;SDS011;2425;47.794;13.068;2023-04-25T05:53:52;111.90;;;29.40;;
4821;SDS011;2425;47.794;13.068;2023-04-25T05:56:20;110.40;;;28.17;;
4821;SDS011;2425;47.794;13.068;2023-04-25T05:58:47;107.83;;;27.10;;
4821;SDS011;2425;47.794;13.068;2023-04-25T06:01:16;110.23;;;28.60;;
4821;SDS011;2425;47.794;13.068;2023-04-25T06:03:43;103.97;;;28.10;;
4821;SDS011;2425;47.794;13.068;2023-04-25T06:06:10;94.20;;;26.13;;
4821;SDS011;2425;47.794;13.068;2023-04-25T06:08:37;108.83;;;27.50;;
4821;SDS011;2425;47.794;13.068;2023-04-25T06:11:04;95.70;;;27.90;;
4821;SDS011;2425;47.794;13.068;2023-04-25T06:13:32;98.57;;;25.53;;
4821;SDS011;2425;47.794;13.068;2023-04-25T06:15:59;83.63;;;24.93;;
4821;SDS011;2425;47.794;13.068;2023-04-25T06:18:26;95.50;;;23.90;;
4821;SDS011;2425;47.794;13.068;2023-04-25T06:20:52;96.13;;;25.23;;
4821;SDS011;2425;47.794;13.068;2023-04-25T06:23:19;74.50;;;24.77;;
4821;SDS011;2425;47.794;13.068;2023-04-25T06:25:46;86.47;;;23.67;;
4821;SDS011;2425;47.794;13.068;2023-04-25T06:28:13;84.97;;;23.93;;
4821;SDS011;2425;47.794;13.068;2023-04-25T06:30:41;71.10;;;21.93;;
4821;SDS011;2425;47.794;13.068;2023-04-25T06:33:07;96.30;;;25.30;;
4821;SDS011;2425;47.794;13.068;2023-04-25T06:35:34;82.03;;;23.37;;
4821;SDS011;2425;47.794;13.068;2023-04-25T06:38:01;75.40;;;23.03;;
4821;SDS011;2425;47.794;13.068;2023-04-25T06:40:28;66.10;;;22.87;;
4821;SDS011;2425;47.794;13.068;2023-04-25T06:42:54;76.10;;;22.13;;
4821;SDS011;2425;47.794;13.068;2023-04-25T06:45:21;76.80;;;23.30;;
4821;SDS011;2425;47.794;13.068;2023-04-25T06:47:49;76.00;;;22.53;;
4821;SDS011;2425;47.794;13.068;2023-04-25T06:50:16;74.10;;;21.93;;
4821;SDS011;2425;47.794;13.068;2023-04-25T06:52:42;73.30;;;23.20;;
4821;SDS011;2425;47.794;13.068;2023-04-25T06:55:09;62.37;;;20.83;;
4821;SDS011;2425;47.794;13.068;2023-04-25T06:57:36;59.50;;;20.27;;
4821;SDS011;2425;47.794;13.068;2023-04-25T07:00:03;59.60;;;19.67;;
4821;SDS011;2425;47.794;13.068;2023-04-25T07:02:34;67.23;;;21.37;;
4821;SDS011;2425;47.794;13.068;2023-04-25T07:05:02;67.87;;;22.40;;
4821;SDS011;2425;47.794;13.068;2023-04-25T07:07:29;74.23;;;20.47;;
4821;SDS011;2425;47.794;13.068;2023-04-25T07:09:56;62.80;;;21.47;;
4821;SDS011;2425;47.794;13.068;2023-04-25T07:12:23;64.83;;;20.13;;
4821;SDS011;2425;47.794;13.068;2023-04-25T07:14:50;58.97;;;19.80;;
4821;SDS011;2425;47.794;13.068;2023-04-25T07:17:16;61.00;;;19.50;;
4821;SDS011;2425;47.794;13.068;2023-04-25T07:19:43;56.33;;;18.97;;
4821;SDS011;2425;47.794;13.068;2023-04-25T07:22:11;53.33;;;18.57;;
4821;SDS011;2425;47.794;13.068;2023-04-25T07:24:38;63.70;;;19.80;;
4821;SDS011;2425;47.794;13.068;2023-04-25T07:27:05;52.37;;;18.67;;
4821;SDS011;2425;47.794;13.068;2023-04-25T07:29:31;62.30;;;19.53;;
4821;SDS011;2425;47.794;13.068;2023-04-25T07:32:02;52.97;;;19.57;;
4821;SDS011;2425;47.794;13.068;2023-04-25T07:34:28;57.30;;;17.80;;
4821;SDS011;2425;47.794;13.068;2023-04-25T07:36:56;49.00;;;17.47;;
4821;SDS011;2425;47.794;13.068;2023-04-25T07:39:25;54.27;;;17.63;;
4821;SDS011;2425;47.794;13.068;2023-04-25T07:41:52;60.30;;;19.50;;
4821;SDS011;2425;47.794;13.068;2023-04-25T07:44:19;55.37;;;18.33;;
4821;SDS011;2425;47.794;13.068;2023-04-25T07:46:46;55.53;;;18.17;;
4821;SDS011;2425;47.794;13.068;2023-04-25T07:49:13;64.80;;;18.67;;
4821;SDS011;2425;47.794;13.068;2023-04-25T07:51:39;51.23;;;18.57;;
4821;SDS011;2425;47.794;13.068;2023-04-25T07:54:08;49.77;;;17.30;;
4821;SDS011;2425;47.794;13.068;2023-04-25T07:56:36;45.13;;;18.07;;
4821;SDS011;2425;47.794;13.068;2023-04-25T07:59:03;49.73;;;18.13;;
4821;SDS011;2425;47.794;13.068;2023-04-25T08:01:30;42.73;;;16.23;;
4821;SDS011;2425;47.794;13.068;2023-04-25T08:03:57;44.20;;;18.57;;
4821;SDS011;2425;47.794;13.068;2023-04-25T08:06:23;48.13;;;16.70;;
4821;SDS011;2425;47.794;13.068;2023-04-25T08:08:50;41.93;;;15.60;;
4821;SDS011;2425;47.794;13.068;2023-04-25T08:11:17;55.67;;;18.00;;
4821;SDS011;2425;47.794;13.068;2023-04-25T08:13:45;37.40;;;14.67;;
4821;SDS011;2425;47.794;13.068;2023-04-25T08:16:12;47.10;;;16.30;;
4821;SDS011;2425;47.794;13.068;2023-04-25T08:18:38;38.97;;;16.73;;
4821;SDS011;2425;47.794;13.068;2023-04-25T08:21:05;43.37;;;15.93;;
4821;SDS011;2425;47.794;13.068;2023-04-25T08:23:33;51.33;;;15.97;;
4821;SDS011;2425;47.794;13.068;2023-04-25T08:26:00;42.87;;;15.67;;
4821;SDS011;2425;47.794;13.068;2023-04-25T08:28:27;43.40;;;15.27;;
4821;SDS011;2425;47.794;13.068;2023-04-25T08:30:55;35.63;;;13.87;;
4821;SDS011;2425;47.794;13.068;2023-04-25T08:33:22;36.50;;;14.73;;
4821;SDS011;2425;47.794;13.068;2023-04-25T08:35:48;36.50;;;14.60;;
4821;SDS011;2425;47.794;13.068;2023-04-25T08:38:15;40.77;;;14.87;;
4821;SDS011;2425;47.794;13.068;2023-04-25T08:40:43;38.50;;;15.50;;
4821;SDS011;2425;47.794;13.068;2023-04-25T08:43:10;34.93;;;14.13;;
4821;SDS011;2425;47.794;13.068;2023-04-25T08:45:40;34.47;;;14.53;;
4821;SDS011;2425;47.794;13.068;2023-04-25T08:48:10;35.67;;;14.67;;
4821;SDS011;2425;47.794;13.068;2023-04-25T08:50:38;39.33;;;15.50;;
4821;SDS011;2425;47.794;13.068;2023-04-25T08:53:06;36.27;;;15.17;;
4821;SDS011;2425;47.794;13.068;2023-04-25T08:55:35;32.97;;;13.67;;
4821;SDS011;2425;47.794;13.068;2023-04-25T08:58:03;35.70;;;13.87;;
4821;SDS011;2425;47.794;13.068;2023-04-25T09:00:30;35.43;;;14.10;;
4821;SDS011;2425;47.794;13.068;2023-04-25T09:02:57;37.40;;;14.10;;
4821;SDS011;2425;47.794;13.068;2023-04-25T09:05:26;35.57;;;14.33;;
4821;SDS011;2425;47.794;13.068;2023-04-25T09:07:54;32.90;;;13.83;;
4821;SDS011;2425;47.794;13.068;2023-04-25T09:10:23;31.80;;;13.20;;
4821;SDS011;2425;47.794;13.068;2023-04-25T09:13:01;31.07;;;13.73;;
4821;SDS011;2425;47.794;13.068;2023-04-25T09:15:29;40.83;;;14.90;;
4821;SDS011;2425;47.794;13.068;2023-04-25T09:17:56;34.30;;;13.13;;
4821;SDS011;2425;47.794;13.068;2023-04-25T09:20:23;33.07;;;13.87;;
4821;SDS011;2425;47.794;13.068;2023-04-25T09:23:00;37.00;;;12.70;;
4821;SDS011;2425;47.794;13.068;2023-04-25T09:25:28;30.90;;;13.33;;
4821;SDS011;2425;47.794;13.068;2023-04-25T09:28:00;30.67;;;12.40;;
4821;SDS011;2425;47.794;13.068;2023-04-25T09:30:30;26.60;;;11.60;;
4821;SDS011;2425;47.794;13.068;2023-04-25T09:33:03;32.20;;;11.70;;
4821;SDS011;2425;47.794;13.068;2023-04-25T09:35:32;28.10;;;12.03;;
4821;SDS011;2425;47.794;13.068;2023-04-25T09:38:01;25.27;;;12.17;;
4821;SDS011;2425;47.794;13.068;2023-04-25T09:40:33;27.30;;;11.57;;
4821;SDS011;2425;47.794;13.068;2023-04-25T09:43:00;28.30;;;11.30;;
4821;SDS011;2425;47.794;13.068;2023-04-25T09:45:29;27.70;;;11.33;;
4821;SDS011;2425;47.794;13.068;2023-04-25T09:47:56;28.67;;;11.90;;
4821;SDS011;2425;47.794;13.068;2023-04-25T09:50:23;29.17;;;12.33;;
4821;SDS011;2425;47.794;13.068;2023-04-25T09:53:03;24.03;;;12.10;;
4821;SDS011;2425;47.794;13.068;2023-04-25T09:55:31;21.27;;;10.20;;
4821;SDS011;2425;47.794;13.068;2023-04-25T09:57:59;22.60;;;10.13;;
4821;SDS011;2425;47.794;13.068;2023-04-25T10:00:30;23.27;;;10.37;;
4821;SDS011;2425;47.794;13.068;2023-04-25T10:02:57;29.17;;;12.07;;
4821;SDS011;2425;47.794;13.068;2023-04-25T10:05:27;37.50;;;11.80;;
4821;SDS011;2425;47.794;13.068;2023-04-25T10:07:56;26.20;;;10.20;;
4821;SDS011;2425;47.794;13.068;2023-04-25T10:10:25;22.53;;;10.83;;
4821;SDS011;2425;47.794;13.068;2023-04-25T10:12:53;27.33;;;10.80;;
4821;SDS011;2425;47.794;13.068;2023-04-25T10:15:20;25.50;;;11.20;;
4821;SDS011;2425;47.794;13.068;2023-04-25T10:17:48;24.97;;;11.57;;
4821;SDS011;2425;47.794;13.068;2023-04-25T10:20:15;21.30;;;10.33;;
4821;SDS011;2425;47.794;13.068;2023-04-25T10:22:44;20.07;;;10.43;;
4821;SDS011;2425;47.794;13.068;2023-04-25T10:25:12;20.87;;;10.10;;
4821;SDS011;2425;47.794;13.068;2023-04-25T10:27:41;20.53;;;9.37;;
4821;SDS011;2425;47.794;13.068;2023-04-25T10:30:08;23.10;;;9.87;;
4821;SDS011;2425;47.794;13.068;2023-04-25T10:32:36;25.20;;;9.80;;
4821;SDS011;2425;47.794;13.068;2023-04-25T10:35:13;22.73;;;10.67;;
4821;SDS011;2425;47.794;13.068;2023-04-25T10:37:57;24.23;;;9.33;;
4821;SDS011;2425;47.794;13.068;2023-04-25T10:40:24;19.10;;;9.63;;
4821;SDS011;2425;47.794;13.068;2023-04-25T10:42:52;21.43;;;9.57;;
4821;SDS011;2425;47.794;13.068;2023-04-25T10:45:19;26.57;;;10.40;;
4821;SDS011;2425;47.794;13.068;2023-04-25T10:47:46;23.00;;;10.40;;
4821;SDS011;2425;47.794;13.068;2023-04-25T10:50:14;24.07;;;9.40;;
4821;SDS011;2425;47.794;13.068;2023-04-25T10:52:41;22.37;;;10.23;;
4821;SDS011;2425;47.794;13.068;2023-04-25T10:55:09;22.53;;;10.33;;
4821;SDS011;2425;47.794;13.068;2023-04-25T10:57:36;21.53;;;9.80;;
4821;SDS011;2425;47.794;13.068;2023-04-25T11:00:06;21.70;;;10.07;;
4821;SDS011;2425;47.794;13.068;2023-04-25T11:02:42;22.53;;;9.90;;
4821;SDS011;2425;47.794;13.068;2023-04-25T11:05:14;19.30;;;9.23;;
4821;SDS011;2425;47.794;13.068;2023-04-25T11:07:47;19.37;;;9.10;;
4821;SDS011;2425;47.794;13.068;2023-04-25T11:10:16;22.03;;;9.73;;
4821;SDS011;2425;47.794;13.068;2023-04-25T11:12:44;18.53;;;10.17;;
4821;SDS011;2425;47.794;13.068;2023-04-25T11:15:12;18.10;;;9.23;;
4821;SDS011;2425;47.794;13.068;2023-04-25T11:17:40;23.20;;;9.07;;
4821;SDS011;2425;47.794;13.068;2023-04-25T11:20:08;21.17;;;9.07;;
4821;SDS011;2425;47.794;13.068;2023-04-25T11:22:37;18.70;;;8.13;;
4821;SDS011;2425;47.794;13.068;2023-04-25T11:25:04;16.57;;;8.93;;
4821;SDS011;2425;47.794;13.068;2023-04-25T11:27:32;15.17;;;7.63;;
4821;SDS011;2425;47.794;13.068;2023-04-25T11:30:09;17.20;;;8.43;;
4821;SDS011;2425;47.794;13.068;2023-04-25T11:32:37;18.40;;;8.93;;
4821;SDS011;2425;47.794;13.068;2023-04-25T11:35:06;16.47;;;8.10;;
4821;SDS011;2425;47.794;13.068;2023-04-25T11:37:33;15.57;;;8.33;;
4821;SDS011;2425;47.794;13.068;2023-04-25T11:40:00;22.00;;;9.27;;
4821;SDS011;2425;47.794;13.068;2023-04-25T11:42:26;13.97;;;8.13;;
4821;SDS011;2425;47.794;13.068;2023-04-25T11:44:53;14.70;;;7.60;;
4821;SDS011;2425;47.794;13.068;2023-04-25T11:47:20;17.83;;;9.20;;
4821;SDS011;2425;47.794;13.068;2023-04-25T11:49:48;16.90;;;8.00;;
4821;SDS011;2425;47.794;13.068;2023-04-25T11:52:15;15.13;;;8.63;;
4821;SDS011;2425;47.794;13.068;2023-04-25T11:54:42;17.20;;;8.40;;
4821;SDS011;2425;47.794;13.068;2023-04-25T11:57:11;15.83;;;8.23;;
4821;SDS011;2425;47.794;13.068;2023-04-25T11:59:37;16.73;;;7.70;;
4821;SDS011;2425;47.794;13.068;2023-04-25T12:02:04;17.77;;;8.10;;
4821;SDS011;2425;47.794;13.068;2023-04-25T12:04:32;16.07;;;7.97;;
4821;SDS011;2425;47.794;13.068;2023-04-25T12:07:00;16.23;;;7.87;;
4821;SDS011;2425;47.794;13.068;2023-04-25T12:09:28;12.57;;;7.23;;
4821;SDS011;2425;47.794;13.068;2023-04-25T12:11:56;16.53;;;8.80;;
4821;SDS011;2425;47.794;13.068;2023-04-25T12:14:24;15.30;;;8.17;;
4821;SDS011;2425;47.794;13.068;2023-04-25T12:16:52;14.83;;;7.70;;
4821;SDS011;2425;47.794;13.068;2023-04-25T12:19:21;14.67;;;6.97;;
4821;SDS011;2425;47.794;13.068;2023-04-25T12:21:48;15.23;;;8.33;;
4821;SDS011;2425;47.794;13.068;2023-04-25T12:24:17;12.73;;;7.53;;
4821;SDS011;2425;47.794;13.068;2023-04-25T12:26:48;15.50;;;7.80;;
4821;SDS011;2425;47.794;13.068;2023-04-25T12:29:20;13.87;;;6.93;;
4821;SDS011;2425;47.794;13.068;2023-04-25T12:31:49;17.00;;;7.60;;
4821;SDS011;2425;47.794;13.068;2023-04-25T12:34:16;16.37;;;7.10;;
4821;SDS011;2425;47.794;13.068;2023-04-25T12:36:43;15.10;;;7.10;;
4821;SDS011;2425;47.794;13.068;2023-04-25T12:39:14;13.37;;;6.97;;
4821;SDS011;2425;47.794;13.068;2023-04-25T12:41:42;14.50;;;7.87;;
4821;SDS011;2425;47.794;13.068;2023-04-25T12:44:09;13.33;;;6.40;;
4821;SDS011;2425;47.794;13.068;2023-04-25T12:46:36;10.07;;;6.47;;
4821;SDS011;2425;47.794;13.068;2023-04-25T12:49:03;13.20;;;7.47;;
4821;SDS011;2425;47.794;13.068;2023-04-25T12:51:29;14.17;;;7.57;;
4821;SDS011;2425;47.794;13.068;2023-04-25T12:53:57;10.57;;;6.27;;
4821;SDS011;2425;47.794;13.068;2023-04-25T12:56:24;10.13;;;6.20;;
4821;SDS011;2425;47.794;13.068;2023-04-25T12:58:53;12.53;;;6.50;;
4821;SDS011;2425;47.794;13.068;2023-04-25T13:01:20;13.53;;;6.20;;
4821;SDS011;2425;47.794;13.068;2023-04-25T13:03:46;10.90;;;5.73;;
4821;SDS011;2425;47.794;13.068;2023-04-25T13:06:13;15.07;;;6.77;;
4821;SDS011;2425;47.794;13.068;2023-04-25T13:08:40;10.90;;;5.87;;
4821;SDS011;2425;47.794;13.068;2023-04-25T13:11:07;10.67;;;6.10;;
4821;SDS011;2425;47.794;13.068;2023-04-25T13:13:34;10.00;;;5.70;;
4821;SDS011;2425;47.794;13.068;2023-04-25T13:16:03;8.47;;;6.27;;
4821;SDS011;2425;47.794;13.068;2023-04-25T13:18:31;10.57;;;5.90;;
4821;SDS011;2425;47.794;13.068;2023-04-25T13:20:58;8.43;;;5.43;;
4821;SDS011;2425;47.794;13.068;2023-04-25T13:23:25;12.57;;;6.37;;
4821;SDS011;2425;47.794;13.068;2023-04-25T13:25:54;10.80;;;6.20;;
4821;SDS011;2425;47.794;13.068;2023-04-25T13:28:22;12.47;;;5.80;;
4821;SDS011;2425;47.794;13.068;2023-04-25T13:30:49;12.33;;;6.50;;
4821;SDS011;2425;47.794;13.068;2023-04-25T13:33:18;10.47;;;6.33;;
4821;SDS011;2425;47.794;13.068;2023-04-25T13:35:45;10.80;;;6.27;;
4821;SDS011;2425;47.794;13.068;2023-04-25T13:38:18;11.80;;;5.90;;
4821;SDS011;2425;47.794;13.068;2023-04-25T13:40:46;10.00;;;5.70;;
4821;SDS011;2425;47.794;13.068;2023-04-25T13:43:12;12.70;;;6.10;;
4821;SDS011;2425;47.794;13.068;2023-04-25T13:45:39;10.47;;;5.80;;
4821;SDS011;2425;47.794;13.068;2023-04-25T13:48:06;15.30;;;6.50;;
4821;SDS011;2425;47.794;13.068;2023-04-25T13:50:34;10.33;;;5.57;;
4821;SDS011;2425;47.794;13.068;2023-04-25T13:53:00;9.23;;;5.43;;
4821;SDS011;2425;47.794;13.068;2023-04-25T13:55:27;11.30;;;6.30;;
4821;SDS011;2425;47.794;13.068;2023-04-25T13:57:54;12.13;;;6.33;;
4821;SDS011;2425;47.794;13.068;2023-04-25T14:00:21;9.40;;;5.13;;
4821;SDS011;2425;47.794;13.068;2023-04-25T14:02:47;9.07;;;5.57;;
4821;SDS011;2425;47.794;13.068;2023-04-25T14:05:14;11.77;;;5.50;;
4821;SDS011;2425;47.794;13.068;2023-04-25T14:07:42;9.10;;;5.40;;
4821;SDS011;2425;47.794;13.068;2023-04-25T14:10:09;7.43;;;5.20;;
4821;SDS011;2425;47.794;13.068;2023-04-25T14:12:36;7.60;;;5.70;;
4821;SDS011;2425;47.794;13.068;2023-04-25T14:15:03;9.47;;;5.20;;
4821;SDS011;2425;47.794;13.068;2023-04-25T14:17:31;9.10;;;5.57;;
4821;SDS011;2425;47.794;13.068;2023-04-25T14:19:58;8.07;;;5.70;;
4821;SDS011;2425;47.794;13.068;2023-04-25T14:22:25;8.77;;;5.07;;
4821;SDS011;2425;47.794;13.068;2023-04-25T14:24:53;8.77;;;5.70;;
4821;SDS011;2425;47.794;13.068;2023-04-25T14:27:21;8.63;;;5.17;;
4821;SDS011;2425;47.794;13.068;2023-04-25T14:29:48;9.00;;;4.70;;
4821;SDS011;2425;47.794;13.068;2023-04-25T14:32:15;8.30;;;5.00;;
4821;SDS011;2425;47.794;13.068;2023-04-25T14:34:42;9.73;;;5.17;;
4821;SDS011;2425;47.794;13.068;2023-04-25T14:37:10;8.17;;;5.23;;
4821;SDS011;2425;47.794;13.068;2023-04-25T14:39:37;5.63;;;4.60;;
4821;SDS011;2425;47.794;13.068;2023-04-25T14:42:05;8.60;;;5.27;;
4821;SDS011;2425;47.794;13.068;2023-04-25T14:44:33;10.87;;;5.10;;
4821;SDS011;2425;47.794;13.068;2023-04-25T14:47:00;7.73;;;4.93;;
4821;SDS011;2425;47.794;13.068;2023-04-25T14:49:27;8.00;;;5.10;;